Time;durP1;ratioP1;P1;durP2;ratioP2;P2;SDS_P1;SDS_P2;PMS_P1;PMS_P2;Temp;Humidity;BMP_temperature;BMP_pressure;BME280_temperature;BME280_humidity;BME280_pressure;Samples;Min_cycle;Max_cycle;Signal;HPM_P1;HPM_P2
2021/08/09 00:00:18;;;;;;;;;;;;;;;;;;2107560;28;1712;-82
2021/08/09 00:01:19;;;;;;;;;;;;;;;;;;2112022;28;1850;-82
2021/08/09 00:02:21;;;;;;;;;;;;;;;;;;2114143;28;1902;-82
2021/08/09 00:03:22;;;;;;;;;;;;;;;;;;2107448;28;1546;-82
2021/08/09 00:04:23;;;;;;;;;;;;;;;;;;2107166;28;1902;-82
2021/08/09 00:05:24;;;;;;;;;;;;;;;;;;2107678;28;1369;-82
2021/08/09 00:06:26;;;;;;;;;;;;;;;;;;2115973;28;1341;-82
2021/08/09 00:07:27;;;;;;;;;;;;;;;;;;2108888;28;1568;-82
2021/08/09 00:08:28;;;;;;;;;;;;;;;;;;2108313;28;1694;-83
2021/08/09 00:09:30;;;;;;;;;;;;;;;;;;2108631;28;1597;-82
2021/08/09 00:10:32;;;;;;;;;;;;;;;;;;2108269;28;2094;-84
2021/08/09 00:11:35;;;;;;;;;;;;;;;;;;2108420;28;1519;-81
2021/08/09 00:12:35;;;;;;;;;;;;;;;;;;2108935;28;1824;-80
2021/08/09 00:13:37;;;;;;;;;;;;;;;;;;2109139;28;1237;-81
2021/08/09 00:14:39;;;;;;;;;;;;;;;;;;2108080;28;1633;-81
2021/08/09 00:15:41;;;;;;;;;;;;;;;;;;2117657;28;1641;-83
2021/08/09 00:16:43;;;;;;;;;;;;;;;;;;2117371;28;1565;-82
2021/08/09 00:17:45;;;;;;;;;;;;;;;;;;2112281;28;1362;-81
2021/08/09 00:18:48;;;;;;;;;;;;;;;;;;2108734;28;1721;-82
2021/08/09 00:19:49;;;;;;;;;;;;;;;;;;2108406;28;1516;-82
2021/08/09 00:20:52;;;;;;;;;;;;;;;;;;2100384;28;1569;-81
2021/08/09 00:21:53;;;;;;;;;;;;;;;;;;2108532;28;1558;-82
2021/08/09 00:22:55;;;;;;;;;;;;;;;;;;2108323;28;1196;-81
2021/08/09 00:23:56;;;;;;;;;;;;;;;;;;2108367;28;1906;-82
2021/08/09 00:24:58;;;;;;;;;;;;;;;;;;2108660;28;1353;-82
2021/08/09 00:25:59;;;;;;;;;;;;;;;;;;2108817;28;1501;-82
2021/08/09 00:27:02;;;;;;;;;;;;;;;;;;2100421;28;1878;-82
2021/08/09 00:28:03;;;;;;;;;;;;;;;;;;2108986;28;799;-82
2021/08/09 00:29:05;;;;;;;;;;;;;;;;;;2108634;28;1222;-82
2021/08/09 00:30:07;;;;;;;;;;;;;;;;;;2100554;28;1674;-82
2021/08/09 00:31:08;;;;;;;;;;;;;;;;;;2100405;28;1631;-83
2021/08/09 00:32:10;;;;;;;;;;;;;;;;;;2100321;28;1431;-83
2021/08/09 00:33:12;;;;;;;;;;;;;;;;;;2100325;28;1562;-83
2021/08/09 00:34:13;;;;;;;;;;;;;;;;;;2099872;28;1324;-83
2021/08/09 00:35:15;;;;;;;;;;;;;;;;;;2100042;28;1464;-83
2021/08/09 00:36:16;;;;;;;;;;;;;;;;;;2099834;28;1331;-83
2021/08/09 00:37:22;;;;;;;;;;;;;;;;;;2100678;28;1258;-83
2021/08/09 00:38:23;;;;;;;;;;;;;;;;;;2100112;28;1274;-83
2021/08/09 00:39:24;;;;;;;;;;;;;;;;;;2100190;28;1387;-82
2021/08/09 00:40:25;;;;;;;;;;;;;;;;;;2100062;28;1826;-82
2021/08/09 00:41:27;;;;;;;;;;;;;;;;;;2108873;28;1317;-82
2021/08/09 00:42:29;;;;;;;;;;;;;;;;;;2108368;28;1131;-83
2021/08/09 00:43:33;;;;;;;;;;;;;;;;;;2108444;28;1970;-82
2021/08/09 00:44:33;;;;;;;;;;;;;;;;;;2099797;28;1902;-82
2021/08/09 00:45:36;;;;;;;;;;;;;;;;;;2100533;28;1639;-81
2021/08/09 00:46:37;;;;;;;;;;;;;;;;;;2100186;28;1453;-82
2021/08/09 00:47:39;;;;;;;;;;;;;;;;;;2099872;28;1414;-83
2021/08/09 00:48:40;;;;;;;;;;;;;;;;;;2108725;28;1612;-82
2021/08/09 00:49:44;;;;;;;;;;;;;;;;;;2109015;28;1325;-83
2021/08/09 00:50:45;;;;;;;;;;;;;;;;;;2100310;28;1420;-83
2021/08/09 00:51:48;;;;;;;;;;;;;;;;;;2100365;28;1583;-83
2021/08/09 00:52:51;;;;;;;;;;;;;;;;;;2103153;28;1281;-83
2021/08/09 00:53:52;;;;;;;;;;;;;;;;;;2108751;28;1544;-83
2021/08/09 00:54:55;;;;;;;;;;;;;;;;;;2100200;28;1689;-82
2021/08/09 00:55:56;;;;;;;;;;;;;;;;;;2091913;28;1325;-82
2021/08/09 00:56:58;;;;;;;;;;;;;;;;;;2099926;28;1239;-82
2021/08/09 00:58:02;;;;;;;;;;;;;;;;;;2091682;28;1215;-83
2021/08/09 00:59:05;;;;;;;;;;;;;;;;;;2092411;28;1672;-82
2021/08/09 01:00:07;;;;;;;;;;;;;;;;;;2091647;28;1304;-82
2021/08/09 01:01:13;;;;;;;;;;;;;;;;;;2098474;28;1632;-82
2021/08/09 01:02:20;;;;;;;;;;;;;;;;;;2100520;28;1610;-83
2021/08/09 01:03:22;;;;;;;;;;;;;;;;;;2108507;28;1292;-82
2021/08/09 01:04:23;;;;;;;;;;;;;;;;;;2108361;28;1917;-81
2021/08/09 01:05:25;;;;;;;;;;;;;;;;;;2108471;28;1656;-82
2021/08/09 01:06:30;;;;;;;;;;;;;;;;;;2101002;28;1538;-82
2021/08/09 01:07:35;;;;;;;;;;;;;;;;;;2100224;28;1768;-82
2021/08/09 01:08:45;;;;;;;;;;;;;;;;;;2100476;28;1620;-82
2021/08/09 01:09:53;;;;;;;;;;;;;;;;;;2101778;28;1408;-82
2021/08/09 01:10:59;;;;;;;;;;;;;;;;;;2104750;28;1341;-82
2021/08/09 01:12:27;;;;;;;;;;;;;;;;;;2095627;28;1298;-83
2021/08/09 01:13:36;;;;;;;;;;;;;;;;;;2109572;28;1036;-82
2021/08/09 01:14:46;;;;;;;;;;;;;;;;;;2108331;28;1553;-82
2021/08/09 01:15:48;;;;;;;;;;;;;;;;;;2101689;28;1262;-81
2021/08/09 01:16:51;;;;;;;;;;;;;;;;;;2099799;28;1308;-82
2021/08/09 01:17:53;;;;;;;;;;;;;;;;;;2099336;28;1642;-82
2021/08/09 01:18:58;;;;;;;;;;;;;;;;;;2099590;28;1875;-82
2021/08/09 01:20:17;;;;;;;;;;;;;;;;;;2100471;28;1339;-82
2021/08/09 01:21:19;;;;;;;;;;;;;;;;;;2095890;28;1977;-82
2021/08/09 01:22:26;;;;;;;;;;;;;;;;;;2108100;28;1655;-82
2021/08/09 01:23:47;;;;;;;;;;;;;;;;;;2116076;28;1654;-82
2021/08/09 01:24:54;;;;;;;;;;;;;;;;;;2110911;28;2028;-82
2021/08/09 01:25:58;;;;;;;;;;;;;;;;;;2108777;28;1414;-82
2021/08/09 01:27:03;;;;;;;;;;;;;;;;;;2108641;28;1353;-82
2021/08/09 01:28:06;;;;;;;;;;;;;;;;;;2108647;28;1235;-82
2021/08/09 01:29:09;;;;;;;;;;;;;;;;;;2108668;28;1190;-82
2021/08/09 01:30:11;;;;;;;;;;;;;;;;;;2108512;28;1631;-82
2021/08/09 01:31:16;;;;;;;;;;;;;;;;;;2108539;28;1321;-82
2021/08/09 01:32:19;;;;;;;;;;;;;;;;;;2108494;28;1326;-82
2021/08/09 01:33:21;;;;;;;;;;;;;;;;;;2108099;28;1532;-82
2021/08/09 01:34:25;;;;;;;;;;;;;;;;;;2107927;28;1526;-82
2021/08/09 01:35:29;;;;;;;;;;;;;;;;;;2108830;28;1656;-82
2021/08/09 01:36:32;;;;;;;;;;;;;;;;;;2108295;28;1392;-81
2021/08/09 01:37:35;;;;;;;;;;;;;;;;;;2100254;28;1257;-82
2021/08/09 01:38:38;;;;;;;;;;;;;;;;;;2100076;28;1322;-82
2021/08/09 01:39:39;;;;;;;;;;;;;;;;;;2108279;28;1680;-82
2021/08/09 01:40:42;;;;;;;;;;;;;;;;;;2108195;28;1328;-82
2021/08/09 01:41:44;;;;;;;;;;;;;;;;;;2108016;28;1392;-82
2021/08/09 01:42:47;;;;;;;;;;;;;;;;;;2104318;28;1907;-82
2021/08/09 01:43:50;;;;;;;;;;;;;;;;;;2108452;28;1882;-82
2021/08/09 01:44:52;;;;;;;;;;;;;;;;;;2108069;28;1973;-82
2021/08/09 01:45:56;;;;;;;;;;;;;;;;;;2108505;28;1290;-82
2021/08/09 01:46:59;;;;;;;;;;;;;;;;;;2108185;28;1376;-82
2021/08/09 01:48:00;;;;;;;;;;;;;;;;;;2114506;28;1472;-82
2021/08/09 01:49:08;;;;;;;;;;;;;;;;;;2108122;28;1285;-82
2021/08/09 01:50:09;;;;;;;;;;;;;;;;;;2107788;28;1197;-82
2021/08/09 01:51:11;;;;;;;;;;;;;;;;;;2107942;28;1411;-82
2021/08/09 01:52:13;;;;;;;;;;;;;;;;;;2099537;28;1536;-83
2021/08/09 01:53:16;;;;;;;;;;;;;;;;;;2099854;28;1408;-82
2021/08/09 01:54:17;;;;;;;;;;;;;;;;;;2099422;28;1481;-83
2021/08/09 01:55:19;;;;;;;;;;;;;;;;;;2099914;28;1283;-82
2021/08/09 01:56:24;;;;;;;;;;;;;;;;;;2108876;28;1301;-82
2021/08/09 01:57:26;;;;;;;;;;;;;;;;;;2108915;28;1380;-82
2021/08/09 01:58:26;;;;;;;;;;;;;;;;;;2116321;27;1152;-82
2021/08/09 01:59:30;;;;;;;;;;;;;;;;;;2116737;28;1808;-81
2021/08/09 02:00:32;;;;;;;;;;;;;;;;;;2108129;28;1288;-82
2021/08/09 02:01:35;;;;;;;;;;;;;;;;;;2108306;28;1497;-82
2021/08/09 02:02:35;;;;;;;;;;;;;;;;;;2107881;28;1195;-87
2021/08/09 02:03:37;;;;;;;;;;;;;;;;;;2107826;28;1527;-82
2021/08/09 02:04:38;;;;;;;;;;;;;;;;;;2107901;28;1914;-82
2021/08/09 02:05:40;;;;;;;;;;;;;;;;;;2107076;28;1893;-82
2021/08/09 02:06:43;;;;;;;;;;;;;;;;;;2100025;28;1343;-82
2021/08/09 02:07:46;;;;;;;;;;;;;;;;;;2099748;28;1886;-82
2021/08/09 02:08:47;;;;;;;;;;;;;;;;;;2099634;28;1231;-83
2021/08/09 02:09:49;;;;;;;;;;;;;;;;;;2116565;28;1713;-82
2021/08/09 02:10:55;;;;;;;;;;;;;;;;;;2116221;28;1306;-82
2021/08/09 02:12:03;;;;;;;;;;;;;;;;;;2108645;28;1240;-82
2021/08/09 02:13:07;;;;;;;;;;;;;;;;;;2108942;28;1526;-82
2021/08/09 02:14:11;;;;;;;;;;;;;;;;;;2108424;28;1410;-83
2021/08/09 02:15:15;;;;;;;;;;;;;;;;;;2108348;28;1441;-82
2021/08/09 02:16:20;;;;;;;;;;;;;;;;;;2099977;28;1478;-81
2021/08/09 02:17:33;;;;;;;;;;;;;;;;;;2110216;28;1444;-82
2021/08/09 02:18:38;;;;;;;;;;;;;;;;;;2108054;28;1444;-82
2021/08/09 02:19:40;;;;;;;;;;;;;;;;;;2108201;28;1383;-82
2021/08/09 02:20:43;;;;;;;;;;;;;;;;;;2107742;28;1365;-82
2021/08/09 02:21:47;;;;;;;;;;;;;;;;;;2108153;28;1388;-82
2021/08/09 02:22:52;;;;;;;;;;;;;;;;;;2108326;28;1288;-82
2021/08/09 02:23:53;;;;;;;;;;;;;;;;;;2108014;28;1435;-82
2021/08/09 02:24:58;;;;;;;;;;;;;;;;;;2107836;28;2253;-82
2021/08/09 02:26:00;;;;;;;;;;;;;;;;;;2108006;28;1393;-81
2021/08/09 02:27:06;;;;;;;;;;;;;;;;;;2107976;28;1492;-82
2021/08/09 02:28:11;;;;;;;;;;;;;;;;;;2100338;28;1204;-84
2021/08/09 02:29:14;;;;;;;;;;;;;;;;;;2099701;28;1419;-82
2021/08/09 02:30:18;;;;;;;;;;;;;;;;;;2099122;28;1294;-82
2021/08/09 02:31:22;;;;;;;;;;;;;;;;;;2100156;28;2083;-82
2021/08/09 02:32:25;;;;;;;;;;;;;;;;;;2099057;28;1322;-83
2021/08/09 02:33:28;;;;;;;;;;;;;;;;;;2108116;28;1370;-83
2021/08/09 02:34:32;;;;;;;;;;;;;;;;;;2107691;28;1435;-82
2021/08/09 02:35:34;;;;;;;;;;;;;;;;;;2099447;28;1458;-82
2021/08/09 02:36:36;;;;;;;;;;;;;;;;;;2099502;28;1604;-82
2021/08/09 02:37:38;;;;;;;;;;;;;;;;;;2091089;28;1315;-83
2021/08/09 02:38:40;;;;;;;;;;;;;;;;;;2099352;28;1293;-82
2021/08/09 02:39:41;;;;;;;;;;;;;;;;;;2107488;28;1286;-82
2021/08/09 02:40:44;;;;;;;;;;;;;;;;;;2100962;28;1868;-83
2021/08/09 02:41:45;;;;;;;;;;;;;;;;;;2107846;28;1403;-82
2021/08/09 02:42:47;;;;;;;;;;;;;;;;;;2107347;28;1385;-82
2021/08/09 02:43:49;;;;;;;;;;;;;;;;;;2116559;28;1594;-83
2021/08/09 02:44:51;;;;;;;;;;;;;;;;;;2115969;28;1991;-82
2021/08/09 02:45:54;;;;;;;;;;;;;;;;;;2115812;28;1311;-82
2021/08/09 02:46:56;;;;;;;;;;;;;;;;;;2115868;28;1300;-82
2021/08/09 02:47:58;;;;;;;;;;;;;;;;;;2107191;28;1512;-83
2021/08/09 02:49:00;;;;;;;;;;;;;;;;;;2107995;28;1238;-82
2021/08/09 02:50:02;;;;;;;;;;;;;;;;;;2107787;28;1409;-82
2021/08/09 02:51:04;;;;;;;;;;;;;;;;;;2107380;28;2024;-83
2021/08/09 02:52:08;;;;;;;;;;;;;;;;;;2107663;28;1392;-82
2021/08/09 02:53:10;;;;;;;;;;;;;;;;;;2108198;28;1176;-83
2021/08/09 02:54:11;;;;;;;;;;;;;;;;;;2107359;28;1262;-83
2021/08/09 02:55:14;;;;;;;;;;;;;;;;;;2107864;28;1289;-82
2021/08/09 02:56:18;;;;;;;;;;;;;;;;;;2099396;28;1287;-83
2021/08/09 02:57:20;;;;;;;;;;;;;;;;;;2107734;28;1452;-83
2021/08/09 02:58:22;;;;;;;;;;;;;;;;;;2107694;28;1293;-83
2021/08/09 02:59:23;;;;;;;;;;;;;;;;;;2107892;28;1182;-83
2021/08/09 03:00:25;;;;;;;;;;;;;;;;;;2107843;28;1632;-83
2021/08/09 03:01:29;;;;;;;;;;;;;;;;;;2107693;28;1459;-82
2021/08/09 03:02:33;;;;;;;;;;;;;;;;;;2107683;28;1668;-83
2021/08/09 03:03:35;;;;;;;;;;;;;;;;;;2107800;28;1304;-83
2021/08/09 03:04:37;;;;;;;;;;;;;;;;;;2107129;28;1905;-82
2021/08/09 03:05:40;;;;;;;;;;;;;;;;;;2107592;28;1431;-82
2021/08/09 03:06:41;;;;;;;;;;;;;;;;;;2107126;28;1208;-83
2021/08/09 03:07:44;;;;;;;;;;;;;;;;;;2099334;28;1389;-83
2021/08/09 03:08:46;;;;;;;;;;;;;;;;;;2099050;28;1646;-83
2021/08/09 03:09:47;;;;;;;;;;;;;;;;;;2098746;28;1367;-83
2021/08/09 03:10:49;;;;;;;;;;;;;;;;;;2109791;28;1991;-83
2021/08/09 03:11:51;;;;;;;;;;;;;;;;;;2107703;28;1267;-82
2021/08/09 03:12:55;;;;;;;;;;;;;;;;;;2099145;28;1252;-82
2021/08/09 03:13:57;;;;;;;;;;;;;;;;;;2099758;28;1413;-81
2021/08/09 03:14:58;;;;;;;;;;;;;;;;;;2107101;28;1518;-82
2021/08/09 03:16:00;;;;;;;;;;;;;;;;;;2099247;28;1523;-82
2021/08/09 03:17:04;;;;;;;;;;;;;;;;;;2099224;28;1276;-83
2021/08/09 03:18:06;;;;;;;;;;;;;;;;;;2113445;28;2017;-87
2021/08/09 03:19:07;;;;;;;;;;;;;;;;;;2116181;28;1301;-82
2021/08/09 03:20:09;;;;;;;;;;;;;;;;;;2116011;28;1657;-83
2021/08/09 03:21:10;;;;;;;;;;;;;;;;;;2110759;28;1636;-82
2021/08/09 03:22:14;;;;;;;;;;;;;;;;;;2107594;28;1211;-84
2021/08/09 03:23:14;;;;;;;;;;;;;;;;;;2099315;28;1702;-83
2021/08/09 03:24:16;;;;;;;;;;;;;;;;;;2107267;28;1541;-82
2021/08/09 03:25:18;;;;;;;;;;;;;;;;;;2098927;28;1918;-82
2021/08/09 03:26:19;;;;;;;;;;;;;;;;;;2098932;28;1382;-82
2021/08/09 03:27:21;;;;;;;;;;;;;;;;;;2099430;28;1631;-82
2021/08/09 03:28:23;;;;;;;;;;;;;;;;;;2099269;28;1346;-83
2021/08/09 03:29:24;;;;;;;;;;;;;;;;;;2098590;28;1198;-82
2021/08/09 03:30:27;;;;;;;;;;;;;;;;;;2099001;28;1523;-82
2021/08/09 03:31:28;;;;;;;;;;;;;;;;;;2106982;28;2174;-82
2021/08/09 03:32:32;;;;;;;;;;;;;;;;;;2115563;28;1289;-83
2021/08/09 03:33:33;;;;;;;;;;;;;;;;;;2115470;28;1270;-82
2021/08/09 03:34:35;;;;;;;;;;;;;;;;;;2107099;28;1262;-82
2021/08/09 03:35:36;;;;;;;;;;;;;;;;;;2115969;28;1392;-82
2021/08/09 03:36:41;;;;;;;;;;;;;;;;;;2107395;28;1778;-82
2021/08/09 03:37:43;;;;;;;;;;;;;;;;;;2108219;28;1425;-82
2021/08/09 03:38:43;;;;;;;;;;;;;;;;;;2107144;28;1703;-82
2021/08/09 03:39:45;;;;;;;;;;;;;;;;;;2107667;28;1802;-82
2021/08/09 03:40:46;;;;;;;;;;;;;;;;;;2107445;28;1572;-84
2021/08/09 03:41:48;;;;;;;;;;;;;;;;;;2108464;28;1423;-84
2021/08/09 03:42:50;;;;;;;;;;;;;;;;;;2109006;28;1453;-84
2021/08/09 03:43:51;;;;;;;;;;;;;;;;;;2108917;28;1309;-84
2021/08/09 03:44:53;;;;;;;;;;;;;;;;;;2109104;28;1926;-83
2021/08/09 03:45:54;;;;;;;;;;;;;;;;;;2112120;28;1356;-84
2021/08/09 03:46:56;;;;;;;;;;;;;;;;;;2117510;28;1205;-84
2021/08/09 03:47:58;;;;;;;;;;;;;;;;;;2117145;28;1397;-84
2021/08/09 03:49:03;;;;;;;;;;;;;;;;;;2108998;28;1555;-84
2021/08/09 03:50:06;;;;;;;;;;;;;;;;;;2109867;28;1349;-84
2021/08/09 03:51:06;;;;;;;;;;;;;;;;;;2114460;27;2055;-84
2021/08/09 03:52:09;;;;;;;;;;;;;;;;;;2109016;28;1518;-84
2021/08/09 03:53:11;;;;;;;;;;;;;;;;;;2100703;28;2041;-84
2021/08/09 03:54:12;;;;;;;;;;;;;;;;;;2117218;28;1337;-84
2021/08/09 03:55:14;;;;;;;;;;;;;;;;;;2109203;28;1718;-83
2021/08/09 03:56:15;;;;;;;;;;;;;;;;;;2109141;28;908;-84
2021/08/09 03:57:17;;;;;;;;;;;;;;;;;;2100683;28;1233;-84
2021/08/09 03:58:19;;;;;;;;;;;;;;;;;;2100504;28;1308;-84
2021/08/09 03:59:20;;;;;;;;;;;;;;;;;;2100937;28;1284;-83
2021/08/09 04:00:22;;;;;;;;;;;;;;;;;;2100877;28;1682;-84
2021/08/09 04:01:26;;;;;;;;;;;;;;;;;;2116759;28;2139;-83
2021/08/09 04:02:31;;;;;;;;;;;;;;;;;;2108654;28;1241;-84
2021/08/09 04:03:33;;;;;;;;;;;;;;;;;;2100891;28;1540;-84
2021/08/09 04:04:36;;;;;;;;;;;;;;;;;;2109455;28;1411;-84
2021/08/09 04:05:37;;;;;;;;;;;;;;;;;;2108939;28;1910;-84
2021/08/09 04:06:39;;;;;;;;;;;;;;;;;;2108791;28;1322;-83
2021/08/09 04:07:40;;;;;;;;;;;;;;;;;;2100386;28;1565;-84
2021/08/09 04:08:43;;;;;;;;;;;;;;;;;;2108919;28;1712;-83
2021/08/09 04:09:43;;;;;;;;;;;;;;;;;;2108758;28;1284;-83
2021/08/09 04:10:45;;;;;;;;;;;;;;;;;;2100209;28;1678;-83
2021/08/09 04:11:46;;;;;;;;;;;;;;;;;;2100463;28;1317;-84
2021/08/09 04:12:49;;;;;;;;;;;;;;;;;;2100274;28;1434;-82
2021/08/09 04:13:50;;;;;;;;;;;;;;;;;;2100699;28;1417;-83
2021/08/09 04:14:52;;;;;;;;;;;;;;;;;;2100417;28;1651;-83
2021/08/09 04:15:53;;;;;;;;;;;;;;;;;;2105358;28;1532;-84
2021/08/09 04:16:55;;;;;;;;;;;;;;;;;;2100497;28;1400;-84
2021/08/09 04:17:56;;;;;;;;;;;;;;;;;;2100481;28;1197;-84
2021/08/09 04:19:00;;;;;;;;;;;;;;;;;;2099936;28;1270;-84
2021/08/09 04:20:01;;;;;;;;;;;;;;;;;;2100544;28;1355;-83
2021/08/09 04:21:04;;;;;;;;;;;;;;;;;;2100695;28;1341;-83
2021/08/09 04:22:06;;;;;;;;;;;;;;;;;;2100856;28;1291;-83
2021/08/09 04:23:08;;;;;;;;;;;;;;;;;;2092018;28;1335;-83
2021/08/09 04:24:09;;;;;;;;;;;;;;;;;;2100372;28;1606;-84
2021/08/09 04:25:10;;;;;;;;;;;;;;;;;;2108573;28;1981;-83
2021/08/09 04:26:12;;;;;;;;;;;;;;;;;;2108268;28;1471;-83
2021/08/09 04:27:13;;;;;;;;;;;;;;;;;;2108352;28;1609;-82
2021/08/09 04:28:15;;;;;;;;;;;;;;;;;;2100318;28;1393;-84
2021/08/09 04:29:16;;;;;;;;;;;;;;;;;;2100196;28;1140;-82
2021/08/09 04:30:18;;;;;;;;;;;;;;;;;;2108680;28;1210;-83
2021/08/09 04:31:22;;;;;;;;;;;;;;;;;;2108661;28;1229;-82
2021/08/09 04:32:23;;;;;;;;;;;;;;;;;;2108837;28;1292;-83
2021/08/09 04:33:25;;;;;;;;;;;;;;;;;;2100503;28;1472;-83
2021/08/09 04:34:28;;;;;;;;;;;;;;;;;;2099620;28;1198;-82
2021/08/09 04:35:29;;;;;;;;;;;;;;;;;;2100651;28;1260;-82
2021/08/09 04:36:33;;;;;;;;;;;;;;;;;;2101175;28;1555;-83
2021/08/09 04:37:35;;;;;;;;;;;;;;;;;;2109070;28;1175;-82
2021/08/09 04:38:39;;;;;;;;;;;;;;;;;;2101151;28;1381;-82
2021/08/09 04:39:42;;;;;;;;;;;;;;;;;;2108509;28;1375;-83
2021/08/09 04:40:43;;;;;;;;;;;;;;;;;;2101780;28;1986;-82
2021/08/09 04:41:45;;;;;;;;;;;;;;;;;;2108952;28;1218;-82
2021/08/09 04:42:47;;;;;;;;;;;;;;;;;;2108619;28;2041;-82
2021/08/09 04:43:53;;;;;;;;;;;;;;;;;;2108595;28;1844;-82
2021/08/09 04:44:55;;;;;;;;;;;;;;;;;;2108779;28;1297;-82
2021/08/09 04:45:57;;;;;;;;;;;;;;;;;;2114724;28;1984;-81
2021/08/09 04:47:00;;;;;;;;;;;;;;;;;;2108653;28;1870;-83
2021/08/09 04:48:04;;;;;;;;;;;;;;;;;;2108122;28;1696;-82
2021/08/09 04:49:05;;;;;;;;;;;;;;;;;;2110193;28;1344;-83
2021/08/09 04:50:09;;;;;;;;;;;;;;;;;;2108859;28;1270;-82
2021/08/09 04:51:13;;;;;;;;;;;;;;;;;;2108785;28;1704;-82
2021/08/09 04:52:18;;;;;;;;;;;;;;;;;;2109221;28;1686;-83
2021/08/09 04:53:19;;;;;;;;;;;;;;;;;;2116028;27;1196;-83
2021/08/09 04:54:21;;;;;;;;;;;;;;;;;;2116873;28;1428;-83
2021/08/09 04:55:23;;;;;;;;;;;;;;;;;;2117274;28;1320;-83
2021/08/09 04:56:27;;;;;;;;;;;;;;;;;;2108486;28;2051;-83
2021/08/09 04:57:28;;;;;;;;;;;;;;;;;;2108514;28;2065;-83
2021/08/09 04:58:31;;;;;;;;;;;;;;;;;;2100027;28;1421;-82
2021/08/09 04:59:33;;;;;;;;;;;;;;;;;;2108886;28;1362;-82
2021/08/09 05:00:35;;;;;;;;;;;;;;;;;;2110706;28;1380;-82
2021/08/09 05:01:37;;;;;;;;;;;;;;;;;;2111399;28;1404;-83
2021/08/09 05:02:38;;;;;;;;;;;;;;;;;;2107951;28;1386;-83
2021/08/09 05:03:41;;;;;;;;;;;;;;;;;;2108103;28;1361;-87
2021/08/09 05:04:51;;;;;;;;;;;;;;;;;;2101384;28;1326;-82
2021/08/09 05:05:54;;;;;;;;;;;;;;;;;;2110276;28;1906;-83
2021/08/09 05:06:55;;;;;;;;;;;;;;;;;;2116856;28;1300;-82
2021/08/09 05:07:58;;;;;;;;;;;;;;;;;;2099530;28;1726;-83
2021/08/09 05:09:02;;;;;;;;;;;;;;;;;;2108585;28;1405;-82
2021/08/09 05:10:04;;;;;;;;;;;;;;;;;;2104627;28;1425;-83
2021/08/09 05:11:09;;;;;;;;;;;;;;;;;;2108167;28;2147;-82
2021/08/09 05:12:10;;;;;;;;;;;;;;;;;;2105851;28;1415;-84
2021/08/09 05:13:20;;;;;;;;;;;;;;;;;;2095216;28;1649;-83
2021/08/09 05:14:22;;;;;;;;;;;;;;;;;;2099978;28;1519;-83
2021/08/09 05:15:26;;;;;;;;;;;;;;;;;;2107684;28;1870;-83
2021/08/09 05:16:28;;;;;;;;;;;;;;;;;;2108012;28;1179;-83
2021/08/09 05:17:30;;;;;;;;;;;;;;;;;;2099793;28;1240;-83
2021/08/09 05:18:31;;;;;;;;;;;;;;;;;;2100202;28;1333;-83
2021/08/09 05:19:33;;;;;;;;;;;;;;;;;;2099704;28;1259;-82
2021/08/09 05:20:35;;;;;;;;;;;;;;;;;;2099438;28;1306;-83
2021/08/09 05:21:38;;;;;;;;;;;;;;;;;;2108529;28;1354;-84
2021/08/09 05:22:39;;;;;;;;;;;;;;;;;;2108364;28;1786;-82
2021/08/09 05:23:41;;;;;;;;;;;;;;;;;;2099906;28;1322;-82
2021/08/09 05:24:42;;;;;;;;;;;;;;;;;;2108080;28;1207;-82
2021/08/09 05:25:43;;;;;;;;;;;;;;;;;;2107741;28;2003;-82
2021/08/09 05:26:44;;;;;;;;;;;;;;;;;;2107823;28;1579;-82
2021/08/09 05:27:46;;;;;;;;;;;;;;;;;;2099429;28;1855;-83
2021/08/09 05:28:46;;;;;;;;;;;;;;;;;;2099361;28;1184;-83
2021/08/09 05:29:49;;;;;;;;;;;;;;;;;;2108276;28;1731;-83
2021/08/09 05:30:51;;;;;;;;;;;;;;;;;;2108040;28;1326;-83
2021/08/09 05:31:52;;;;;;;;;;;;;;;;;;2108342;28;1418;-83
2021/08/09 05:32:54;;;;;;;;;;;;;;;;;;2113005;28;2011;-82
2021/08/09 05:33:55;;;;;;;;;;;;;;;;;;2107633;28;1244;-83
2021/08/09 05:34:58;;;;;;;;;;;;;;;;;;2099674;28;1433;-83
2021/08/09 05:36:01;;;;;;;;;;;;;;;;;;2100482;28;1864;-83
2021/08/09 05:37:03;;;;;;;;;;;;;;;;;;2099600;28;1267;-83
2021/08/09 05:38:08;;;;;;;;;;;;;;;;;;2108680;28;1204;-82
2021/08/09 05:39:09;;;;;;;;;;;;;;;;;;2108262;28;1431;-83
2021/08/09 05:40:12;;;;;;;;;;;;;;;;;;2107778;28;894;-83
2021/08/09 05:41:14;;;;;;;;;;;;;;;;;;2112905;28;1919;-83
2021/08/09 05:42:14;;;;;;;;;;;;;;;;;;2107434;28;1904;-83
2021/08/09 05:43:16;;;;;;;;;;;;;;;;;;2107798;28;1676;-83
2021/08/09 05:44:18;;;;;;;;;;;;;;;;;;2108228;28;1302;-83
2021/08/09 05:45:20;;;;;;;;;;;;;;;;;;2099740;28;1488;-83
2021/08/09 05:46:21;;;;;;;;;;;;;;;;;;2099818;28;1914;-84
2021/08/09 05:47:23;;;;;;;;;;;;;;;;;;2106687;28;1933;-84
2021/08/09 05:48:24;;;;;;;;;;;;;;;;;;2107411;28;1781;-84
2021/08/09 05:49:26;;;;;;;;;;;;;;;;;;2107916;28;1441;-83
2021/08/09 05:50:29;;;;;;;;;;;;;;;;;;2107908;28;1421;-83
2021/08/09 05:51:40;;;;;;;;;;;;;;;;;;2109027;28;1239;-84
2021/08/09 05:52:44;;;;;;;;;;;;;;;;;;2108148;28;1415;-83
2021/08/09 05:53:49;;;;;;;;;;;;;;;;;;2108578;28;1361;-83
2021/08/09 05:54:49;;;;;;;;;;;;;;;;;;2107488;28;1279;-83
2021/08/09 05:55:51;;;;;;;;;;;;;;;;;;2101861;28;1904;-83
2021/08/09 05:56:53;;;;;;;;;;;;;;;;;;2116346;28;1322;-83
2021/08/09 05:57:54;;;;;;;;;;;;;;;;;;2105905;28;1938;-85
2021/08/09 05:58:56;;;;;;;;;;;;;;;;;;2108290;28;1274;-83
2021/08/09 06:00:00;;;;;;;;;;;;;;;;;;2100013;28;1540;-83
2021/08/09 06:01:02;;;;;;;;;;;;;;;;;;2106622;28;1646;-82
2021/08/09 06:02:05;;;;;;;;;;;;;;;;;;2108050;28;1549;-83
2021/08/09 06:03:07;;;;;;;;;;;;;;;;;;2115579;28;1829;-83
2021/08/09 06:04:20;;;;;;;;;;;;;;;;;;2117137;27;1419;-83
2021/08/09 06:05:21;;;;;;;;;;;;;;;;;;2114911;28;1390;-84
2021/08/09 06:06:28;;;;;;;;;;;;;;;;;;2113111;28;1943;-83
2021/08/09 06:07:54;;;;;;;;;;;;;;;;;;2116555;28;1388;-83
2021/08/09 06:08:55;;;;;;;;;;;;;;;;;;2116243;28;1560;-83
2021/08/09 06:09:57;;;;;;;;;;;;;;;;;;2107963;28;1394;-83
2021/08/09 06:10:57;;;;;;;;;;;;;;;;;;2107379;28;1320;-83
2021/08/09 06:12:00;;;;;;;;;;;;;;;;;;2099525;28;1619;-83
2021/08/09 06:13:02;;;;;;;;;;;;;;;;;;2114899;28;1278;-84
2021/08/09 06:14:03;;;;;;;;;;;;;;;;;;2107503;28;1465;-84
2021/08/09 06:15:06;;;;;;;;;;;;;;;;;;2099403;28;1518;-85
2021/08/09 06:16:08;;;;;;;;;;;;;;;;;;2101583;28;2086;-85
2021/08/09 06:17:09;;;;;;;;;;;;;;;;;;2098961;28;1243;-84
2021/08/09 06:18:11;;;;;;;;;;;;;;;;;;2105662;28;1383;-85
2021/08/09 06:19:14;;;;;;;;;;;;;;;;;;2099520;28;1348;-84
2021/08/09 06:20:17;;;;;;;;;;;;;;;;;;2108747;28;1355;-85
2021/08/09 06:21:22;;;;;;;;;;;;;;;;;;2107833;28;1337;-84
2021/08/09 06:22:23;;;;;;;;;;;;;;;;;;2105271;28;1323;-84
2021/08/09 06:23:26;;;;;;;;;;;;;;;;;;2101410;28;1349;-85
2021/08/09 06:24:27;;;;;;;;;;;;;;;;;;2110554;28;1294;-84
2021/08/09 06:25:30;;;;;;;;;;;;;;;;;;2116199;28;1402;-82
2021/08/09 06:26:31;;;;;;;;;;;;;;;;;;2095011;28;1918;-84
2021/08/09 06:27:34;;;;;;;;;;;;;;;;;;2093623;28;1764;-85
2021/08/09 06:28:37;;;;;;;;;;;;;;;;;;2110504;28;1404;-85
2021/08/09 06:29:40;;;;;;;;;;;;;;;;;;2107312;28;1387;-82
2021/08/09 06:30:43;;;;;;;;;;;;;;;;;;2098821;28;1691;-85
2021/08/09 06:31:49;;;;;;;;;;;;;;;;;;2099258;28;1211;-85
2021/08/09 06:32:54;;;;;;;;;;;;;;;;;;2091514;28;1287;-85
2021/08/09 06:33:58;;;;;;;;;;;;;;;;;;2095058;28;1488;-86
2021/08/09 06:35:06;;;;;;;;;;;;;;;;;;2091638;28;1544;-86
2021/08/09 06:36:09;;;;;;;;;;;;;;;;;;2104037;28;1674;-86
2021/08/09 06:37:10;;;;;;;;;;;;;;;;;;2107824;28;1294;-85
2021/08/09 06:38:15;;;;;;;;;;;;;;;;;;2091459;28;1700;-86
2021/08/09 06:39:21;;;;;;;;;;;;;;;;;;2113656;28;1499;-85
2021/08/09 06:40:24;;;;;;;;;;;;;;;;;;2123832;27;1284;-85
2021/08/09 06:41:31;;;;;;;;;;;;;;;;;;2106250;28;1120;-85
2021/08/09 06:42:42;;;;;;;;;;;;;;;;;;2098447;28;1382;-85
2021/08/09 06:43:52;;;;;;;;;;;;;;;;;;2099072;28;1519;-85
2021/08/09 06:44:54;;;;;;;;;;;;;;;;;;2098799;28;1285;-85
2021/08/09 06:45:56;;;;;;;;;;;;;;;;;;2111066;28;1440;-85
2021/08/09 06:46:57;;;;;;;;;;;;;;;;;;2107174;28;1905;-85
2021/08/09 06:47:59;;;;;;;;;;;;;;;;;;2100899;28;1262;-84
2021/08/09 06:49:00;;;;;;;;;;;;;;;;;;2099217;28;1196;-85
2021/08/09 06:50:04;;;;;;;;;;;;;;;;;;2098608;28;1389;-84
2021/08/09 06:51:06;;;;;;;;;;;;;;;;;;2095556;28;1839;-85
2021/08/09 06:52:09;;;;;;;;;;;;;;;;;;2107229;28;979;-84
2021/08/09 06:53:13;;;;;;;;;;;;;;;;;;2098385;28;2032;-84
2021/08/09 06:54:24;;;;;;;;;;;;;;;;;;2108219;28;1370;-84
2021/08/09 06:55:25;;;;;;;;;;;;;;;;;;2115949;28;1467;-85
2021/08/09 06:56:27;;;;;;;;;;;;;;;;;;2099249;28;1119;-84
2021/08/09 06:57:29;;;;;;;;;;;;;;;;;;2099536;28;1408;-85
2021/08/09 06:58:34;;;;;;;;;;;;;;;;;;2099881;28;1613;-84
2021/08/09 06:59:36;;;;;;;;;;;;;;;;;;2099695;28;1392;-85
2021/08/09 07:00:37;;;;;;;;;;;;;;;;;;2099176;28;1437;-85
2021/08/09 07:01:42;;;;;;;;;;;;;;;;;;2091369;28;1376;-84
2021/08/09 07:02:43;;;;;;;;;;;;;;;;;;2091297;28;1371;-85
2021/08/09 07:03:46;;;;;;;;;;;;;;;;;;2099613;28;1656;-84
2021/08/09 07:04:47;;;;;;;;;;;;;;;;;;2099003;28;1304;-85
2021/08/09 07:05:50;;;;;;;;;;;;;;;;;;2104824;28;1769;-85
2021/08/09 07:06:58;;;;;;;;;;;;;;;;;;2100154;28;1987;-84
2021/08/09 07:08:00;;;;;;;;;;;;;;;;;;2107702;28;1144;-85
2021/08/09 07:09:04;;;;;;;;;;;;;;;;;;2107601;28;1257;-84
2021/08/09 07:10:09;;;;;;;;;;;;;;;;;;2099282;28;1233;-85
2021/08/09 07:11:10;;;;;;;;;;;;;;;;;;2104650;28;1897;-86
2021/08/09 07:12:12;;;;;;;;;;;;;;;;;;2107530;28;1335;-85
2021/08/09 07:13:13;;;;;;;;;;;;;;;;;;2098704;28;1316;-85
2021/08/09 07:14:18;;;;;;;;;;;;;;;;;;2100200;28;1420;-85
2021/08/09 07:15:21;;;;;;;;;;;;;;;;;;2107878;28;1449;-85
2021/08/09 07:16:24;;;;;;;;;;;;;;;;;;2099401;28;1588;-85